• Join FlightAware (Why Join?)
  • Login
  • US Flag 
05:35PM EST


 

Airport Tracker/Info


-or-


 

Live Flight TrackerFlight Track Log ✈ CWC409 ✈ 10-Dec-2013 ✈ KMIA - SPIM / LIM

Flight Track Log - Related Links

Times and Time Zones

All times are in EST time to prevent confusion due to time zone crossing. See the CWC409 flight status page for this flight to view local times or setup timezone preferences in your user account.

Time Position Orientation Groundspeed Altitude Reporting Facility
EST Latitude Longitude Course Direction KTS MPH feet Rate Location/Type
09:38AM 25.8006 -80.2606 113° Southeast 174 200 900  Level Miami Center
09:38AM 25.7847 -80.2186 113° Southeast 180 207 2,700 1,800 Climbing Miami Center
09:39AM 25.7811 -80.1978 101° East 179 206 3,200 1,140 Climbing Miami Center
09:40AM 25.7297 -80.1550 143° Southeast 236 272 4,400 2,100 Climbing Miami Center
09:41AM 25.6506 -80.1481 175° South 249 287 7,400 2,940 Climbing Miami Center
09:42AM 25.5589 -80.1411 176° South 277 319 10,300 2,220 Climbing Miami Center
09:43AM 25.4700 -80.1019 158° South 315 362 11,900 1,560 Climbing Miami Center
09:44AM 25.3711 -80.0347 148° Southeast 364 419 13,500 2,040 Climbing Miami Center
09:45AM 25.2703 -79.9678 149° Southeast 391 450 16,000 2,340 Climbing Miami Center
09:46AM 25.1694 -79.8942 147° Southeast 416 479 18,200 2,100 Climbing Miami Center
09:47AM 25.0622 -79.8181 147° Southeast 442 509 20,200 1,800 Climbing Miami Center
09:48AM 24.9511 -79.7375 147° Southeast 460 529 21,900 1,740 Climbing Miami Center
09:49AM 24.8375 -79.6569 147° Southeast 472 543 23,700 1,800 Climbing Miami Center
09:50AM 24.7222 -79.5744 147° Southeast 485 558 25,600 1,740 Climbing Miami Center
09:51AM 24.6044 -79.4942 148° Southeast 492 566 27,200 1,620 Climbing Miami Center
09:52AM 24.4867 -79.4186 150° Southeast 492 566 28,900 1,500 Climbing Miami Center
09:53AM 24.3533 -79.3931 170° South 471 542 30,200 1,320 Climbing Miami Center
09:54AM 24.2133 -79.3947 181° South 483 556 31,600 1,320 Climbing Miami Center
09:55AM 24.0775 -79.3989 182° South 483 556 32,900 1,260 Climbing Miami Center
09:57AM 23.8666 -79.3836 176° South  Level Estimated
10:04AM 22.9716 -79.3194 176° South  Level Estimated
10:05AM 22.8437 -79.3103 176° South  Level Estimated
10:06AM 22.7159 -79.3012 176° South  Level Estimated
10:07AM 22.5880 -79.2921 176° South  Level Estimated
10:08AM 22.4601 -79.2830 176° South  Level Estimated
10:09AM 22.3323 -79.2740 176° South  Level Estimated
10:10AM 22.2044 -79.2650 176° South  Level Estimated
10:11AM 22.0766 -79.2560 176° South  Level Estimated
10:12AM 21.9487 -79.2470 176° South  Level Estimated
10:13AM 21.8209 -79.2380 176° South  Level Estimated
10:14AM 21.6930 -79.2290 176° South  Level Estimated
10:15AM 21.5651 -79.2201 176° South  Level Estimated
10:16AM 21.4373 -79.2112 176° South  Level Estimated
10:17AM 21.3094 -79.2023 176° South  Level Estimated
10:18AM 21.1815 -79.1934 176° South  Level Estimated
10:19AM 21.0537 -79.1845 176° South  Level Estimated
10:20AM 20.9258 -79.1756 176° South  Level Estimated
10:21AM 20.7980 -79.1668 176° South  Level Estimated
10:22AM 20.6701 -79.1579 176° South  Level Estimated
10:23AM 20.5422 -79.1491 176° South  Level Estimated
10:24AM 20.4144 -79.1403 176° South  Level Estimated
10:25AM 20.2865 -79.1315 176° South  Level Estimated
10:26AM 20.1587 -79.1227 176° South  Level Estimated
10:27AM 20.0308 -79.1140 176° South  Level Estimated
10:28AM 19.9029 -79.1052 176° South  Level Estimated
10:29AM 19.7751 -79.0965 176° South  Level Estimated
10:30AM 19.6472 -79.0878 176° South  Level Estimated
10:31AM 19.5193 -79.0790 176° South  Level Estimated
10:32AM 19.3915 -79.0704 176° South  Level Estimated
10:33AM 19.2636 -79.0617 176° South  Level Estimated
10:34AM 19.1357 -79.0530 176° South  Level Estimated
10:35AM 19.0078 -79.0444 176° South  Level Estimated
10:36AM 18.8800 -79.0357 176° South  Level Estimated
10:37AM 18.7521 -79.0271 176° South  Level Estimated
10:38AM 18.6242 -79.0185 176° South  Level Estimated
10:39AM 18.4964 -79.0099 176° South  Level Estimated
10:40AM 18.3685 -79.0013 176° South  Level Estimated
10:41AM 18.2406 -78.9927 176° South  Level Estimated
10:42AM 18.1127 -78.9842 176° South  Level Estimated
10:43AM 17.9849 -78.9756 176° South  Level Estimated
10:44AM 17.8570 -78.9671 176° South  Level Estimated
10:45AM 17.7291 -78.9585 176° South  Level Estimated
10:46AM 17.6013 -78.9500 176° South  Level Estimated
10:47AM 17.4734 -78.9415 176° South  Level Estimated
10:48AM 17.3455 -78.9331 176° South  Level Estimated
10:49AM 17.2177 -78.9246 176° South  Level Estimated
10:50AM 17.0898 -78.9161 176° South  Level Estimated
10:51AM 16.9619 -78.9077 176° South  Level Estimated
10:52AM 16.8340 -78.8992 176° South  Level Estimated
10:53AM 16.7062 -78.8908 176° South  Level Estimated
10:54AM 16.5783 -78.8824 176° South  Level Estimated
10:55AM 16.4504 -78.8740 176° South  Level Estimated
10:56AM 16.3225 -78.8656 176° South  Level Estimated
10:57AM 16.1946 -78.8572 176° South  Level Estimated
10:58AM 16.0668 -78.8488 176° South  Level Estimated
10:59AM 15.9389 -78.8404 176° South  Level Estimated
11:00AM 15.8110 -78.8321 176° South  Level Estimated
11:01AM 15.6831 -78.8238 176° South  Level Estimated
11:02AM 15.5552 -78.8154 176° South  Level Estimated
11:03AM 15.4274 -78.8071 176° South  Level Estimated
11:04AM 15.2995 -78.7988 176° South  Level Estimated
11:05AM 15.1716 -78.7905 176° South  Level Estimated
11:06AM 15.0437 -78.7822 176° South  Level Estimated
11:07AM 14.9158 -78.7739 176° South  Level Estimated
11:08AM 14.7880 -78.7656 176° South  Level Estimated
11:09AM 14.6601 -78.7574 176° South  Level Estimated
11:10AM 14.5322 -78.7491 176° South  Level Estimated
11:11AM 14.4043 -78.7409 176° South  Level Estimated
11:12AM 14.2764 -78.7327 176° South  Level Estimated
11:13AM 14.1486 -78.7244 176° South  Level Estimated
11:14AM 14.0207 -78.7162 176° South  Level Estimated
11:15AM 13.8928 -78.7080 176° South  Level Estimated
11:16AM 13.7649 -78.6998 176° South  Level Estimated
11:17AM 13.6370 -78.6916 176° South  Level Estimated
11:18AM 13.5092 -78.6835 176° South  Level Estimated
11:19AM 13.3813 -78.6753 176° South  Level Estimated
11:20AM 13.2534 -78.6671 176° South  Level Estimated
11:21AM 13.1255 -78.6590 176° South  Level Estimated
11:22AM 12.9976 -78.6508 176° South  Level Estimated
11:23AM 12.8698 -78.6427 176° South  Level Estimated
11:24AM 12.7419 -78.6346 176° South  Level Estimated
11:25AM 12.6140 -78.6264 176° South  Level Estimated
11:26AM 12.4861 -78.6183 176° South  Level Estimated
11:27AM 12.3582 -78.6102 176° South  Level Estimated
11:28AM 12.2303 -78.6021 176° South  Level Estimated
11:29AM 12.1024 -78.5940 176° South  Level Estimated
11:30AM 11.9746 -78.5860 176° South  Level Estimated
11:31AM 11.8467 -78.5779 176° South  Level Estimated
11:32AM 11.7188 -78.5698 176° South  Level Estimated
11:33AM 11.5909 -78.5618 176° South  Level Estimated
11:34AM 11.4630 -78.5537 176° South  Level Estimated
11:35AM 11.3351 -78.5457 176° South  Level Estimated
11:36AM 11.2072 -78.5377 176° South  Level Estimated
11:37AM 11.0793 -78.5296 176° South  Level Estimated
11:38AM 10.9514 -78.5216 176° South  Level Estimated
11:39AM 10.8235 -78.5136 176° South  Level Estimated
11:40AM 10.6957 -78.5056 176° South  Level Estimated
11:41AM 10.5678 -78.4976 176° South  Level Estimated
11:42AM 10.4399 -78.4896 176° South  Level Estimated
11:43AM 10.3120 -78.4816 176° South  Level Estimated
11:44AM 10.1841 -78.4736 176° South  Level Estimated
11:45AM 10.0562 -78.4657 176° South  Level Estimated
11:46AM 9.9283 -78.4577 176° South  Level Estimated
11:47AM 9.8004 -78.4497 176° South  Level Estimated
11:48AM 9.6725 -78.4418 176° South  Level Estimated
11:49AM 9.5446 -78.4338 176° South  Level Estimated
11:50AM 9.4167 -78.4259 176° South  Level Estimated
11:51AM 9.2889 -78.4179 176° South  Level Estimated
11:52AM 9.1610 -78.4100 176° South  Level Estimated
11:53AM 9.0331 -78.4021 176° South  Level Estimated
11:54AM 8.9052 -78.3941 176° South  Level Estimated
11:55AM 8.7773 -78.3862 176° South  Level Estimated
11:56AM 8.6494 -78.3783 177° South  Level Estimated
11:57AM 8.5215 -78.3704 177° South  Level Estimated
11:58AM 8.3936 -78.3625 177° South  Level Estimated
11:59AM 8.2657 -78.3546 177° South  Level Estimated
12:00PM 8.1378 -78.3467 177° South  Level Estimated
12:01PM 8.0100 -78.3389 177° South  Level Estimated
12:02PM 7.8821 -78.3310 177° South  Level Estimated
12:03PM 7.7542 -78.3231 177° South  Level Estimated
12:04PM 7.6263 -78.3152 177° South  Level Estimated
12:05PM 7.4984 -78.3074 177° South  Level Estimated
12:06PM 7.3705 -78.2995 177° South  Level Estimated
12:07PM 7.2426 -78.2917 177° South  Level Estimated
12:08PM 7.1147 -78.2838 177° South  Level Estimated
12:09PM 6.9868 -78.2760 177° South  Level Estimated
12:10PM 6.8590 -78.2681 177° South  Level Estimated
12:11PM 6.7311 -78.2603 177° South  Level Estimated
12:12PM 6.6032 -78.2524 177° South  Level Estimated
12:13PM 6.4753 -78.2446 177° South  Level Estimated
12:14PM 6.3474 -78.2368 177° South  Level Estimated
12:15PM 6.2195 -78.2290 177° South  Level Estimated
12:16PM 6.0916 -78.2212 177° South  Level Estimated
12:17PM 5.9637 -78.2133 177° South  Level Estimated
12:18PM 5.8358 -78.2055 177° South  Level Estimated
12:19PM 5.7079 -78.1977 177° South  Level Estimated
12:20PM 5.5800 -78.1899 177° South  Level Estimated
12:21PM 5.4522 -78.1821 177° South  Level Estimated
12:22PM 5.3243 -78.1743 177° South  Level Estimated
12:23PM 5.1964 -78.1665 177° South  Level Estimated
12:24PM 5.0685 -78.1587 177° South  Level Estimated
12:25PM 4.9406 -78.1509 177° South  Level Estimated
12:26PM 4.8127 -78.1432 177° South  Level Estimated
12:27PM 4.6848 -78.1354 177° South  Level Estimated
12:28PM 4.5569 -78.1276 177° South  Level Estimated
12:29PM 4.4290 -78.1198 177° South  Level Estimated
12:30PM 4.3011 -78.1121 177° South  Level Estimated
12:31PM 4.1732 -78.1043 177° South  Level Estimated
12:32PM 4.0453 -78.0965 177° South  Level Estimated
12:33PM 3.9174 -78.0888 177° South  Level Estimated
12:34PM 3.7895 -78.0810 177° South  Level Estimated
12:35PM 3.6616 -78.0732 177° South  Level Estimated
12:36PM 3.5337 -78.0655 177° South  Level Estimated
12:37PM 3.4058 -78.0577 177° South  Level Estimated
12:38PM 3.2779 -78.0500 177° South  Level Estimated
12:39PM 3.1500 -78.0422 177° South  Level Estimated
12:40PM 3.0221 -78.0345 177° South  Level Estimated
12:41PM 2.8942 -78.0267 177° South  Level Estimated
12:42PM 2.7663 -78.0190 177° South  Level Estimated
12:43PM 2.6384 -78.0112 177° South  Level Estimated
12:44PM 2.5105 -78.0035 177° South  Level Estimated
12:45PM 2.3826 -77.9957 177° South  Level Estimated
12:46PM 2.2547 -77.9880 177° South  Level Estimated
12:47PM 2.1268 -77.9802 177° South  Level Estimated
12:48PM 1.9989 -77.9725 177° South  Level Estimated
12:49PM 1.8710 -77.9648 177° South  Level Estimated
12:50PM 1.7431 -77.9570 177° South  Level Estimated
12:51PM 1.6152 -77.9493 177° South  Level Estimated
12:52PM 1.4873 -77.9416 177° South  Level Estimated
12:53PM 1.3594 -77.9338 177° South  Level Estimated
12:54PM 1.2315 -77.9261 177° South  Level Estimated
12:55PM 1.1036 -77.9184 177° South  Level Estimated
12:56PM 0.9757 -77.9106 177° South  Level Estimated
12:57PM 0.8478 -77.9029 177° South  Level Estimated
12:58PM 0.7199 -77.8952 177° South  Level Estimated
12:59PM 0.5920 -77.8875 177° South  Level Estimated
01:00PM 0.4641 -77.8797 177° South  Level Estimated
01:01PM 0.3362 -77.8720 177° South  Level Estimated
01:02PM 0.2083 -77.8643 177° South  Level Estimated
01:03PM 0.0804 -77.8565 177° South  Level Estimated
01:04PM -0.0475 -77.8488 177° South  Level Estimated
01:05PM -0.1754 -77.8411 177° South  Level Estimated
01:06PM -0.3033 -77.8333 177° South  Level Estimated
01:07PM -0.4312 -77.8256 177° South  Level Estimated
01:08PM -0.5591 -77.8179 177° South  Level Estimated
01:09PM -0.6870 -77.8102 177° South  Level Estimated
01:10PM -0.8149 -77.8024 177° South  Level Estimated
01:11PM -0.9428 -77.7947 177° South  Level Estimated
01:12PM -1.0707 -77.7870 177° South  Level Estimated
01:13PM -1.1986 -77.7792 177° South  Level Estimated
01:14PM -1.3265 -77.7715 177° South  Level Estimated
01:15PM -1.4544 -77.7638 177° South  Level Estimated
01:16PM -1.5823 -77.7560 177° South  Level Estimated
01:17PM -1.7102 -77.7483 177° South  Level Estimated
01:18PM -1.8381 -77.7406 177° South  Level Estimated
01:19PM -1.9660 -77.7328 177° South  Level Estimated
01:20PM -2.0939 -77.7251 177° South  Level Estimated
01:21PM -2.2218 -77.7173 177° South  Level Estimated
01:22PM -2.3497 -77.7096 177° South  Level Estimated
01:23PM -2.4776 -77.7019 177° South  Level Estimated
01:24PM -2.6055 -77.6941 177° South  Level Estimated
01:25PM -2.7334 -77.6864 177° South  Level Estimated
01:26PM -2.8613 -77.6786 177° South  Level Estimated
01:27PM -2.9892 -77.6709 177° South  Level Estimated
01:28PM -3.1171 -77.6631 177° South  Level Estimated
01:29PM -3.2450 -77.6554 177° South  Level Estimated
01:30PM -3.3729 -77.6476 177° South  Level Estimated
01:31PM -3.5008 -77.6399 177° South  Level Estimated
01:32PM -3.6287 -77.6321 177° South  Level Estimated
01:33PM -3.7566 -77.6243 177° South  Level Estimated
01:34PM -3.8845 -77.6166 177° South  Level Estimated
01:35PM -4.0124 -77.6088 177° South  Level Estimated
01:36PM -4.1403 -77.6010 177° South  Level Estimated
01:37PM -4.2682 -77.5933 177° South  Level Estimated
01:38PM -4.3961 -77.5855 177° South  Level Estimated
01:39PM -4.5240 -77.5777 177° South  Level Estimated
01:40PM -4.6519 -77.5699 177° South  Level Estimated
01:41PM -4.7798 -77.5622 177° South  Level Estimated
01:42PM -4.9077 -77.5544 177° South  Level Estimated
01:43PM -5.0356 -77.5466 177° South  Level Estimated
01:44PM -5.1635 -77.5388 177° South  Level Estimated
01:45PM -5.2913 -77.5310 177° South  Level Estimated
01:46PM -5.4192 -77.5232 177° South  Level Estimated
01:47PM -5.5471 -77.5154 177° South  Level Estimated
01:48PM -5.6750 -77.5076 177° South  Level Estimated
01:49PM -5.8029 -77.4998 177° South  Level Estimated
01:50PM -5.9308 -77.4920 177° South  Level Estimated
01:51PM -6.0587 -77.4842 177° South  Level Estimated
01:52PM -6.1866 -77.4764 177° South  Level Estimated
01:53PM -6.3145 -77.4685 177° South  Level Estimated
01:54PM -6.4424 -77.4607 177° South  Level Estimated
01:55PM -6.5703 -77.4529 177° South  Level Estimated
01:56PM -6.6981 -77.4451 177° South  Level Estimated
01:57PM -6.8260 -77.4372 177° South  Level Estimated
01:58PM -6.9539 -77.4294 177° South  Level Estimated
01:59PM -7.0818 -77.4215 177° South  Level Estimated
02:00PM -7.2097 -77.4137 177° South  Level Estimated
02:01PM -7.3376 -77.4058 177° South  Level Estimated
02:02PM -7.4655 -77.3980 177° South  Level Estimated
02:03PM -7.5934 -77.3901 177° South  Level Estimated
02:04PM -7.7213 -77.3822 177° South  Level Estimated
02:05PM -7.8492 -77.3744 177° South  Level Estimated
02:06PM -7.9770 -77.3665 177° South  Level Estimated
02:07PM -8.1049 -77.3586 177° South  Level Estimated
02:08PM -8.2328 -77.3507 177° South  Level Estimated
02:09PM -8.3607 -77.3428 177° South  Level Estimated
02:10PM -8.4886 -77.3349 177° South  Level Estimated
02:11PM -8.6165 -77.3270 177° South  Level Estimated
02:12PM -8.7444 -77.3191 177° South  Level Estimated
02:13PM -8.8723 -77.3112 177° South  Level Estimated
02:14PM -9.0002 -77.3033 176° South  Level Estimated
02:15PM -9.1280 -77.2953 176° South  Level Estimated
02:16PM -9.2559 -77.2874 176° South  Level Estimated
02:17PM -9.3838 -77.2795 176° South  Level Estimated
02:18PM -9.5117 -77.2715 176° South  Level Estimated
02:19PM -9.6396 -77.2636 176° South  Level Estimated
02:20PM -9.7675 -77.2556 176° South  Level Estimated
02:21PM -9.8954 -77.2477 176° South  Level Estimated
02:22PM -10.0233 -77.2397 176° South  Level Estimated
02:23PM -10.1512 -77.2317 176° South  Level Estimated
02:24PM -10.2791 -77.2237 176° South  Level Estimated
02:25PM -10.4069 -77.2158 176° South  Level Estimated
02:26PM -10.5348 -77.2078 176° South  Level Estimated
02:27PM -10.6627 -77.1998 176° South  Level Estimated
02:28PM -10.7906 -77.1918 176° South  Level Estimated
02:29PM -10.9185 -77.1837 176° South  Level Estimated
02:30PM -11.0464 -77.1757 176° South  Level Estimated
02:31PM -11.1743 -77.1677 176° South  Level Estimated
02:32PM -11.3022 -77.1597 176° South  Level Estimated
02:33PM -11.4301 -77.1516 176° South  Level Estimated
02:34PM -11.5580 -77.1436 176° South  Level Estimated
02:35PM -11.6859 -77.1355 176° South  Level Estimated
02:36PM -11.8137 -77.1275 176° South  Level Estimated
02:37PM -11.9416 -77.1194 176° South  Level Estimated
02:38PM -12.0219 -77.1143 176° South  Level Estimated
02:39PM -12.0219 -77.1143 44° Northeast  Level Estimated
02:40PM -12.0219 -77.1143 44° Northeast  Level Estimated
02:41PM -12.0219 -77.1143 44° Northeast  Level Estimated
02:42PM -12.0219 -77.1143 44° Northeast  Level Estimated
02:43PM -12.0219 -77.1143 44° Northeast  Level Estimated
02:44PM -12.0219 -77.1143 44° Northeast  Level Estimated
02:45PM -12.0219 -77.1143 44° Northeast  Level Estimated
02:46PM -12.0219 -77.1143 44° Northeast  Level Estimated
02:47PM -12.0219 -77.1143 44° Northeast  Level Estimated
02:48PM -12.0219 -77.1143 44° Northeast  Level Estimated
02:49PM -12.0219 -77.1143 44° Northeast  Level Estimated
02:50PM -12.0219 -77.1143 44° Northeast  Level Estimated
02:51PM -12.0219 -77.1143 44° Northeast  Level Estimated
02:52PM -12.0219 -77.1143 44° Northeast  Level Estimated